Time;durP1;ratioP1;P1;durP2;ratioP2;P2;SDS_P1;SDS_P2;PMS_P1;PMS_P2;Temp;Humidity;BMP_temperature;BMP_pressure;BME280_temperature;BME280_humidity;BME280_pressure;Samples;Min_cycle;Max_cycle;Signal;HPM_P1;HPM_P2
2024/03/13 00:00:01;;;;;;;11.77;7.67;;;;;;;;;;4978649;28;20226;-85
2024/03/13 00:03:05;;;;;;;14.70;8.17;;;;;;;;;;4980701;28;20529;-85
2024/03/13 00:06:10;;;;;;;12.67;8.17;;;;;;;;;;4979142;28;20652;-85
2024/03/13 00:09:17;;;;;;;10.63;7.20;;;;;;;;;;5001188;28;20214;-85
2024/03/13 00:12:21;;;;;;;13.77;8.90;;;;;;;;;;4978979;28;20659;-85
2024/03/13 00:15:25;;;;;;;12.77;8.10;;;;;;;;;;5001674;28;20202;-85
2024/03/13 00:18:29;;;;;;;12.47;8.23;;;;;;;;;;4980903;28;20230;-84
2024/03/13 00:21:35;;;;;;;14.20;9.40;;;;;;;;;;4957099;28;20183;-85
2024/03/13 00:24:39;;;;;;;15.63;8.13;;;;;;;;;;4989925;28;20179;-85
2024/03/13 00:27:46;;;;;;;11.47;7.70;;;;;;;;;;4979265;28;20179;-85
2024/03/13 00:30:50;;;;;;;13.87;8.17;;;;;;;;;;4978901;28;20521;-85
2024/03/13 00:33:54;;;;;;;12.93;7.80;;;;;;;;;;4990259;28;20210;-85
2024/03/13 00:36:59;;;;;;;13.70;8.17;;;;;;;;;;5001538;28;20179;-85
2024/03/13 00:40:03;;;;;;;11.67;8.37;;;;;;;;;;4978713;28;20214;-85
2024/03/13 00:43:08;;;;;;;12.37;7.40;;;;;;;;;;4978797;28;20179;-85
2024/03/13 00:46:13;;;;;;;11.87;7.47;;;;;;;;;;4979459;28;20183;-85
2024/03/13 00:49:17;;;;;;;14.47;7.80;;;;;;;;;;4979818;28;20552;-85
2024/03/13 00:52:24;;;;;;;14.17;8.60;;;;;;;;;;4978756;28;20179;-85
2024/03/13 00:55:28;;;;;;;16.43;7.67;;;;;;;;;;4978324;28;20219;-85
2024/03/13 00:58:33;;;;;;;13.97;8.57;;;;;;;;;;4979446;28;20702;-85
2024/03/13 01:01:40;;;;;;;12.67;7.60;;;;;;;;;;4989899;28;20175;-85
2024/03/13 01:04:45;;;;;;;12.07;7.13;;;;;;;;;;5000979;28;20183;-85
2024/03/13 01:07:49;;;;;;;10.87;7.03;;;;;;;;;;4978408;28;20191;-85
2024/03/13 01:10:55;;;;;;;12.73;7.20;;;;;;;;;;4988548;28;20190;-85
2024/03/13 01:14:03;;;;;;;12.93;7.33;;;;;;;;;;4989724;28;20207;-85
2024/03/13 01:17:07;;;;;;;12.67;8.00;;;;;;;;;;4978123;28;20186;-85
2024/03/13 01:20:15;;;;;;;14.20;7.77;;;;;;;;;;4966552;28;20218;-85
2024/03/13 01:23:20;;;;;;;11.07;7.40;;;;;;;;;;4967353;28;20648;-85
2024/03/13 01:26:24;;;;;;;12.37;8.17;;;;;;;;;;4977657;28;20523;-85
2024/03/13 01:29:29;;;;;;;10.97;7.67;;;;;;;;;;4977590;28;20215;-85
2024/03/13 01:32:33;;;;;;;10.93;6.93;;;;;;;;;;5000121;28;20179;-85
2024/03/13 01:35:37;;;;;;;11.47;7.73;;;;;;;;;;4977427;28;20206;-85
2024/03/13 01:38:41;;;;;;;13.30;7.67;;;;;;;;;;4977249;28;20223;-85
2024/03/13 01:55:28;;;;;;;13.47;8.73;;;;;;;;;;4977387;28;20215;-85
2024/03/13 01:58:41;;;;;;;13.80;8.60;;;;;;;;;;4987727;28;20218;-85
2024/03/13 02:05:09;;;;;;;14.77;8.53;;;;;;;;;;4976863;28;20530;-85
2024/03/13 02:08:15;;;;;;;12.77;8.40;;;;;;;;;;4976950;28;20683;-85
2024/03/13 02:11:19;;;;;;;13.83;8.27;;;;;;;;;;4975946;28;20183;-85
2024/03/13 02:14:23;;;;;;;14.83;8.73;;;;;;;;;;4986401;28;20206;-85
2024/03/13 02:17:37;;;;;;;15.10;8.70;;;;;;;;;;4975902;28;20178;-85
2024/03/13 02:20:43;;;;;;;13.63;7.90;;;;;;;;;;4987399;28;20175;-85
2024/03/13 02:23:48;;;;;;;11.63;7.87;;;;;;;;;;4998629;28;20183;-85
2024/03/13 02:26:52;;;;;;;13.17;8.57;;;;;;;;;;4998688;28;20179;-85
2024/03/13 02:29:58;;;;;;;15.20;9.13;;;;;;;;;;4976078;28;20218;-85
2024/03/13 02:33:02;;;;;;;15.50;9.27;;;;;;;;;;4976179;28;20530;-85
2024/03/13 02:36:06;;;;;;;14.23;9.53;;;;;;;;;;4976304;28;20207;-85
2024/03/13 02:39:10;;;;;;;13.23;8.63;;;;;;;;;;4987268;28;20222;-85
2024/03/13 02:42:16;;;;;;;13.83;8.70;;;;;;;;;;4987278;28;20187;-85
2024/03/13 02:45:22;;;;;;;12.20;8.23;;;;;;;;;;4964883;28;20182;-85
2024/03/13 02:48:27;;;;;;;13.80;8.70;;;;;;;;;;4976090;28;20210;-85
2024/03/13 02:51:31;;;;;;;16.43;8.27;;;;;;;;;;4976751;28;20179;-85
2024/03/13 02:54:35;;;;;;;13.83;8.60;;;;;;;;;;4977361;28;20206;-85
2024/03/13 02:57:40;;;;;;;15.33;9.17;;;;;;;;;;4987327;28;20187;-86
2024/03/13 03:00:44;;;;;;;14.23;7.77;;;;;;;;;;4976007;28;20183;-85
2024/03/13 03:03:49;;;;;;;16.00;8.43;;;;;;;;;;4976224;28;20178;-85
2024/03/13 03:06:53;;;;;;;15.00;8.90;;;;;;;;;;4976340;28;20174;-85
2024/03/13 03:09:57;;;;;;;15.03;8.60;;;;;;;;;;4976526;28;20234;-85
2024/03/13 03:13:02;;;;;;;14.37;8.00;;;;;;;;;;4976516;28;20179;-85
2024/03/13 03:16:07;;;;;;;11.43;7.80;;;;;;;;;;4975869;28;20219;-85
2024/03/13 03:19:11;;;;;;;10.87;7.23;;;;;;;;;;4977433;28;20226;-85
2024/03/13 03:22:15;;;;;;;11.33;7.53;;;;;;;;;;4976348;28;20183;-85
2024/03/13 03:25:20;;;;;;;11.20;7.57;;;;;;;;;;4976488;28;20616;-85
2024/03/13 03:28:25;;;;;;;9.47;6.83;;;;;;;;;;4977421;28;20218;-85
2024/03/13 03:31:29;;;;;;;11.00;7.00;;;;;;;;;;4977452;28;20632;-85
2024/03/13 03:34:39;;;;;;;9.93;7.17;;;;;;;;;;4975633;28;20207;-85
2024/03/13 03:37:43;;;;;;;9.67;6.73;;;;;;;;;;4965127;28;20179;-85
2024/03/13 03:40:47;;;;;;;9.97;7.00;;;;;;;;;;4977316;28;20640;-85
2024/03/13 03:43:52;;;;;;;12.57;6.60;;;;;;;;;;4987496;28;20195;-85
2024/03/13 03:46:56;;;;;;;11.43;6.83;;;;;;;;;;4975805;28;20186;-85
2024/03/13 03:50:01;;;;;;;12.57;7.50;;;;;;;;;;4976667;28;20222;-85
2024/03/13 03:53:05;;;;;;;11.43;7.73;;;;;;;;;;4998784;28;20179;-85
2024/03/13 03:56:16;;;;;;;10.27;6.50;;;;;;;;;;4977042;28;20215;-85
2024/03/13 03:59:20;;;;;;;10.60;7.13;;;;;;;;;;4987180;28;20703;-85
2024/03/13 04:02:24;;;;;;;10.63;6.63;;;;;;;;;;4975967;28;20179;-85
2024/03/13 04:05:28;;;;;;;8.83;6.20;;;;;;;;;;4975802;28;20179;-85
2024/03/13 04:08:33;;;;;;;10.47;6.63;;;;;;;;;;4976615;28;20214;-85
2024/03/13 04:11:38;;;;;;;10.67;6.30;;;;;;;;;;4976659;28;20191;-85
2024/03/13 04:14:44;;;;;;;8.67;5.80;;;;;;;;;;4975490;28;20183;-85
2024/03/13 04:17:48;;;;;;;9.00;6.10;;;;;;;;;;4963227;28;20560;-84
2024/03/13 04:20:52;;;;;;;8.63;6.13;;;;;;;;;;4986174;28;20183;-85
2024/03/13 04:23:56;;;;;;;10.90;6.50;;;;;;;;;;4996934;28;20183;-85
2024/03/13 04:27:00;;;;;;;8.47;5.97;;;;;;;;;;4986140;28;20179;-85
2024/03/13 04:30:05;;;;;;;8.97;6.10;;;;;;;;;;4974004;28;20222;-85
2024/03/13 04:33:09;;;;;;;8.33;5.77;;;;;;;;;;4974230;28;20547;-85
2024/03/13 04:36:13;;;;;;;8.80;6.30;;;;;;;;;;4985103;28;20671;-85
2024/03/13 04:39:18;;;;;;;9.83;6.43;;;;;;;;;;4973579;28;20591;-85
2024/03/13 04:42:22;;;;;;;9.83;6.47;;;;;;;;;;4974027;28;20447;-85
2024/03/13 04:45:26;;;;;;;10.27;6.80;;;;;;;;;;4975957;28;20179;-85
2024/03/13 04:48:30;;;;;;;7.67;5.53;;;;;;;;;;4977756;28;20218;-85
2024/03/13 04:51:35;;;;;;;7.53;6.23;;;;;;;;;;4966085;28;20179;-86
2024/03/13 04:54:39;;;;;;;12.37;5.60;;;;;;;;;;4977836;28;20191;-85
2024/03/13 04:57:43;;;;;;;8.27;6.00;;;;;;;;;;4977026;28;20178;-86
2024/03/13 05:00:47;;;;;;;10.07;5.73;;;;;;;;;;4966085;28;20179;-86
2024/03/13 05:03:51;;;;;;;8.10;5.00;;;;;;;;;;4999503;28;20178;-86
2024/03/13 05:07:01;;;;;;;6.43;4.60;;;;;;;;;;4977649;28;20175;-86
2024/03/13 05:10:06;;;;;;;5.23;4.23;;;;;;;;;;4998981;28;20691;-85
2024/03/13 05:13:10;;;;;;;5.63;4.27;;;;;;;;;;4977030;28;20183;-86
2024/03/13 05:16:15;;;;;;;5.33;4.27;;;;;;;;;;4976494;28;20206;-85
2024/03/13 05:19:19;;;;;;;6.47;4.43;;;;;;;;;;4976944;28;20230;-86
2024/03/13 05:22:23;;;;;;;5.03;3.47;;;;;;;;;;4976708;28;20536;-86
2024/03/13 05:25:27;;;;;;;3.43;2.73;;;;;;;;;;4976577;28;20179;-86
2024/03/13 05:28:32;;;;;;;3.00;2.40;;;;;;;;;;4977045;28;20222;-86
2024/03/13 05:31:36;;;;;;;2.50;1.93;;;;;;;;;;4976505;28;20179;-86
2024/03/13 05:34:40;;;;;;;3.50;2.40;;;;;;;;;;4976577;28;20644;-85
2024/03/13 05:37:46;;;;;;;2.33;2.13;;;;;;;;;;4976524;28;20179;-85
2024/03/13 05:40:50;;;;;;;2.20;1.97;;;;;;;;;;4976982;28;20183;-85
2024/03/13 05:43:54;;;;;;;3.40;2.47;;;;;;;;;;4987692;28;20183;-86
2024/03/13 05:46:59;;;;;;;4.47;2.13;;;;;;;;;;4998377;28;20178;-86
2024/03/13 05:50:03;;;;;;;2.63;2.20;;;;;;;;;;4975928;28;20215;-86
2024/03/13 05:53:08;;;;;;;2.17;1.97;;;;;;;;;;4998588;28;20183;-86
2024/03/13 05:56:12;;;;;;;2.30;2.10;;;;;;;;;;4976950;28;20211;-85
2024/03/13 05:59:17;;;;;;;2.20;1.73;;;;;;;;;;4987148;28;20214;-85
2024/03/13 06:02:21;;;;;;;2.47;1.67;;;;;;;;;;4976178;28;20179;-86
2024/03/13 06:05:26;;;;;;;1.93;1.83;;;;;;;;;;4975719;28;20175;-86
2024/03/13 06:08:31;;;;;;;2.03;1.73;;;;;;;;;;4976272;28;20215;-86
2024/03/13 06:11:36;;;;;;;2.93;1.73;;;;;;;;;;4975360;28;20187;-87
2024/03/13 06:14:40;;;;;;;3.13;1.70;;;;;;;;;;4975865;28;20551;-86
2024/03/13 06:17:45;;;;;;;2.23;1.57;;;;;;;;;;4975469;28;20183;-86
2024/03/13 06:20:49;;;;;;;2.27;2.03;;;;;;;;;;4964690;28;20179;-86
2024/03/13 06:24:00;;;;;;;2.57;1.50;;;;;;;;;;4975156;28;20708;-86
2024/03/13 06:27:09;;;;;;;5.87;1.80;;;;;;;;;;4975282;28;20635;-86
2024/03/13 06:30:13;;;;;;;1.47;1.17;;;;;;;;;;4975286;28;20700;-86
2024/03/13 06:33:17;;;;;;;2.13;1.00;;;;;;;;;;4986924;28;20179;-85
2024/03/13 06:36:22;;;;;;;1.40;1.30;;;;;;;;;;4976496;28;20206;-85
2024/03/13 06:39:26;;;;;;;1.43;0.83;;;;;;;;;;4986629;28;20698;-86
2024/03/13 06:42:30;;;;;;;3.27;1.10;;;;;;;;;;4977314;28;20183;-85
2024/03/13 06:45:36;;;;;;;1.37;0.90;;;;;;;;;;4983979;28;20632;-86
2024/03/13 06:48:40;;;;;;;7.67;5.13;;;;;;;;;;4994153;28;20222;-86
2024/03/13 06:51:45;;;;;;;3.97;3.57;;;;;;;;;;4982372;28;20182;-86
2024/03/13 06:54:49;;;;;;;0.80;0.80;;;;;;;;;;4982331;28;20184;-87
2024/03/13 06:57:53;;;;;;;0.90;0.90;;;;;;;;;;4993458;28;20505;-86
2024/03/13 07:00:58;;;;;;;2.10;1.10;;;;;;;;;;4983424;28;20179;-86
2024/03/13 07:04:02;;;;;;;1.57;1.00;;;;;;;;;;4981894;28;20178;-87
2024/03/13 07:07:08;;;;;;;1.73;1.63;;;;;;;;;;4982402;28;20179;-87
2024/03/13 07:10:12;;;;;;;1.83;1.00;;;;;;;;;;5003289;28;20215;-88
2024/03/13 07:13:18;;;;;;;1.20;1.10;;;;;;;;;;5004298;28;20564;-87
2024/03/13 07:16:22;;;;;;;1.33;1.10;;;;;;;;;;4992425;28;20214;-87
2024/03/13 07:19:27;;;;;;;1.00;0.90;;;;;;;;;;4979130;28;20226;-88
2024/03/13 07:22:34;;;;;;;0.90;0.90;;;;;;;;;;4977794;28;20183;-87
2024/03/13 07:25:38;;;;;;;0.70;0.70;;;;;;;;;;4967511;28;20183;-88
2024/03/13 07:28:42;;;;;;;0.63;0.57;;;;;;;;;;4990822;28;20210;-88
2024/03/13 07:31:46;;;;;;;1.13;0.63;;;;;;;;;;4993273;28;20179;-88
2024/03/13 07:34:51;;;;;;;0.53;0.53;;;;;;;;;;4971708;28;20183;-87
2024/03/13 07:37:58;;;;;;;1.23;1.13;;;;;;;;;;4983518;28;20179;-88
2024/03/13 07:41:02;;;;;;;0.77;0.77;;;;;;;;;;4984325;28;20183;-88
2024/03/13 07:44:09;;;;;;;1.10;1.10;;;;;;;;;;4995011;28;20183;-88
2024/03/13 07:47:14;;;;;;;2.20;1.10;;;;;;;;;;4972748;28;20183;-88
2024/03/13 07:50:18;;;;;;;1.27;1.17;;;;;;;;;;4983294;28;20183;-88
2024/03/13 07:53:22;;;;;;;1.40;0.70;;;;;;;;;;4982718;28;20183;-88
2024/03/13 07:56:27;;;;;;;0.70;0.70;;;;;;;;;;4981686;28;20214;-88
2024/03/13 07:59:31;;;;;;;0.80;0.80;;;;;;;;;;4982040;28;20222;-89
2024/03/13 08:02:35;;;;;;;0.73;0.73;;;;;;;;;;4981621;28;20182;-88
2024/03/13 08:05:39;;;;;;;0.97;0.70;;;;;;;;;;4992281;28;20186;-88
2024/03/13 08:08:44;;;;;;;0.57;0.57;;;;;;;;;;4982108;28;20230;-88
2024/03/13 08:11:48;;;;;;;0.93;0.80;;;;;;;;;;4981252;28;20187;-88
2024/03/13 08:14:52;;;;;;;0.70;0.60;;;;;;;;;;4980495;28;20183;-88
2024/03/13 08:17:58;;;;;;;0.80;0.70;;;;;;;;;;4990289;28;20210;-88
2024/03/13 08:21:03;;;;;;;0.80;0.60;;;;;;;;;;4981704;28;20175;-88
2024/03/13 08:24:07;;;;;;;0.80;0.70;;;;;;;;;;4982577;28;20191;-88
2024/03/13 08:27:11;;;;;;;1.43;0.80;;;;;;;;;;4982918;28;20183;-88
2024/03/13 08:30:17;;;;;;;0.70;0.70;;;;;;;;;;4994964;28;20207;-88
2024/03/13 08:33:21;;;;;;;0.80;0.63;;;;;;;;;;4983217;28;20186;-88
2024/03/13 08:36:25;;;;;;;0.83;0.70;;;;;;;;;;5005686;28;20211;-88
2024/03/13 08:39:29;;;;;;;0.90;0.60;;;;;;;;;;4981755;28;20222;-88
2024/03/13 08:42:34;;;;;;;1.10;0.90;;;;;;;;;;4992487;28;20186;-87
2024/03/13 08:45:38;;;;;;;0.80;0.70;;;;;;;;;;4970150;28;20175;-88
2024/03/13 08:48:43;;;;;;;0.80;0.80;;;;;;;;;;4981535;28;20222;-88
2024/03/13 08:51:47;;;;;;;2.30;1.00;;;;;;;;;;4991923;28;20187;-87
2024/03/13 08:54:52;;;;;;;0.80;0.80;;;;;;;;;;4980326;28;20188;-87
2024/03/13 08:57:57;;;;;;;2.20;1.00;;;;;;;;;;4980534;28;20202;-88
2024/03/13 09:01:01;;;;;;;0.83;0.67;;;;;;;;;;4980810;28;20179;-88
2024/03/13 09:04:06;;;;;;;1.00;0.80;;;;;;;;;;4979762;28;20659;-87
2024/03/13 09:07:12;;;;;;;2.07;1.60;;;;;;;;;;4957605;28;20175;-88
2024/03/13 09:10:18;;;;;;;0.93;0.90;;;;;;;;;;4969656;28;20187;-88
2024/03/13 09:13:22;;;;;;;1.37;0.90;;;;;;;;;;4979911;28;20182;-88
2024/03/13 09:16:26;;;;;;;1.07;0.80;;;;;;;;;;4990300;28;20210;-88
2024/03/13 09:19:30;;;;;;;2.13;1.17;;;;;;;;;;4990127;28;20226;-88
2024/03/13 09:22:34;;;;;;;1.57;0.97;;;;;;;;;;4979228;28;20186;-88
2024/03/13 09:25:38;;;;;;;1.47;1.00;;;;;;;;;;4978169;28;20647;-88
2024/03/13 09:28:42;;;;;;;1.00;0.90;;;;;;;;;;4989738;28;20691;-87
2024/03/13 09:31:47;;;;;;;0.97;0.53;;;;;;;;;;4977820;28;20226;-86
2024/03/13 09:34:51;;;;;;;0.70;0.70;;;;;;;;;;5001058;28;20179;-86
2024/03/13 09:37:55;;;;;;;0.70;0.53;;;;;;;;;;4978576;28;20210;-87
2024/03/13 09:41:06;;;;;;;1.50;1.00;;;;;;;;;;4978202;28;20178;-86
2024/03/13 09:44:11;;;;;;;2.13;1.93;;;;;;;;;;4978007;28;20182;-86
2024/03/13 09:47:16;;;;;;;2.30;2.10;;;;;;;;;;4978745;28;20179;-88
2024/03/13 09:50:23;;;;;;;1.87;1.40;;;;;;;;;;4989357;28;20183;-88
2024/03/13 09:53:28;;;;;;;1.77;1.30;;;;;;;;;;4966653;28;20187;-88
2024/03/13 09:56:32;;;;;;;2.80;0.90;;;;;;;;;;4978196;28;20215;-88
2024/03/13 09:59:36;;;;;;;1.10;1.00;;;;;;;;;;4977455;28;20222;-88
2024/03/13 10:02:49;;;;;;;1.47;0.87;;;;;;;;;;4977265;28;20179;-88
2024/03/13 10:06:05;;;;;;;3.27;1.10;;;;;;;;;;4988599;28;20179;-88
2024/03/13 10:09:12;;;;;;;0.80;0.70;;;;;;;;;;4977545;28;20206;-86
2024/03/13 10:12:20;;;;;;;2.10;1.23;;;;;;;;;;4989161;28;20183;-86
2024/03/13 10:15:25;;;;;;;10.83;4.60;;;;;;;;;;4976915;28;20190;-86
2024/03/13 10:18:30;;;;;;;10.10;4.80;;;;;;;;;;4977601;28;20230;-86
2024/03/13 10:21:35;;;;;;;1.40;1.10;;;;;;;;;;4977756;28;20190;-86
2024/03/13 10:24:42;;;;;;;8.03;7.33;;;;;;;;;;4977410;28;20628;-86
2024/03/13 10:27:47;;;;;;;2.40;1.70;;;;;;;;;;4988443;28;20175;-86
2024/03/13 10:30:53;;;;;;;0.70;0.70;;;;;;;;;;4965804;28;20179;-86
2024/03/13 10:34:00;;;;;;;2.60;0.90;;;;;;;;;;4988156;28;20179;-86
2024/03/13 10:37:12;;;;;;;1.00;0.80;;;;;;;;;;4987515;28;20214;-86
2024/03/13 10:40:17;;;;;;;1.47;0.90;;;;;;;;;;4977089;28;20175;-87
2024/03/13 10:43:21;;;;;;;1.37;0.80;;;;;;;;;;4998533;28;20533;-87
2024/03/13 10:46:30;;;;;;;1.67;1.00;;;;;;;;;;4977422;28;20632;-87
2024/03/13 10:49:34;;;;;;;0.93;0.90;;;;;;;;;;4998610;28;20557;-86
2024/03/13 10:52:39;;;;;;;1.47;0.80;;;;;;;;;;4976320;28;20179;-87
2024/03/13 10:55:44;;;;;;;1.00;0.90;;;;;;;;;;4987409;28;20178;-87
2024/03/13 10:58:48;;;;;;;1.00;0.80;;;;;;;;;;4986979;28;20234;-87
2024/03/13 11:01:52;;;;;;;0.97;0.80;;;;;;;;;;4965237;28;20182;-87
2024/03/13 11:04:56;;;;;;;1.10;1.00;;;;;;;;;;4975901;28;20526;-86
2024/03/13 11:08:00;;;;;;;7.70;4.30;;;;;;;;;;4987983;28;20534;-85
2024/03/13 11:11:05;;;;;;;55.40;25.67;;;;;;;;;;4988744;28;20183;-85
2024/03/13 11:14:13;;;;;;;66.70;31.50;;;;;;;;;;4977832;28;20667;-85
2024/03/13 11:17:21;;;;;;;66.20;35.87;;;;;;;;;;4976885;28;20555;-86
2024/03/13 11:20:30;;;;;;;21.57;15.77;;;;;;;;;;4975723;28;20194;-87
2024/03/13 11:23:40;;;;;;;9.83;8.83;;;;;;;;;;4986687;28;20186;-87
2024/03/13 11:26:48;;;;;;;4.13;3.73;;;;;;;;;;4987241;28;20183;-86
2024/03/13 11:29:54;;;;;;;3.53;3.23;;;;;;;;;;4976181;28;20557;-87
2024/03/13 11:32:59;;;;;;;1.93;1.70;;;;;;;;;;4987006;28;20183;-86
2024/03/13 11:36:04;;;;;;;1.40;1.30;;;;;;;;;;4997776;28;20187;-86
2024/03/13 11:39:15;;;;;;;1.00;1.00;;;;;;;;;;4975635;28;20214;-87
2024/03/13 11:42:21;;;;;;;1.20;1.10;;;;;;;;;;4986321;28;20187;-87
2024/03/13 11:45:25;;;;;;;1.33;1.00;;;;;;;;;;4975060;28;20183;-87
2024/03/13 11:48:29;;;;;;;0.90;0.90;;;;;;;;;;4975918;28;20214;-87
2024/03/13 11:51:35;;;;;;;1.13;1.03;;;;;;;;;;4997872;28;20179;-87
2024/03/13 11:54:43;;;;;;;2.33;1.03;;;;;;;;;;4986833;28;20206;-87
2024/03/13 11:57:47;;;;;;;1.37;1.07;;;;;;;;;;4990381;28;20218;-87
2024/03/13 12:00:51;;;;;;;1.77;0.90;;;;;;;;;;5001942;28;20182;-87
2024/03/13 12:03:58;;;;;;;1.13;0.90;;;;;;;;;;4979728;28;20186;-87
2024/03/13 12:07:03;;;;;;;1.80;0.90;;;;;;;;;;4979192;28;20628;-87
2024/03/13 12:10:15;;;;;;;0.87;0.87;;;;;;;;;;4979031;28;20218;-87
2024/03/13 12:13:23;;;;;;;2.03;0.93;;;;;;;;;;4979716;28;20175;-87
2024/03/13 12:16:27;;;;;;;1.67;1.10;;;;;;;;;;5001623;28;20191;-87
2024/03/13 12:19:32;;;;;;;1.10;1.00;;;;;;;;;;4979317;28;20222;-87
2024/03/13 12:22:36;;;;;;;1.27;1.00;;;;;;;;;;4978692;28;20187;-87
2024/03/13 12:25:41;;;;;;;1.40;1.00;;;;;;;;;;4980025;28;20179;-86
2024/03/13 12:28:46;;;;;;;7.77;1.40;;;;;;;;;;4978761;28;20214;-86
2024/03/13 12:31:51;;;;;;;1.17;1.03;;;;;;;;;;4990028;28;20183;-86
2024/03/13 12:34:57;;;;;;;1.17;1.07;;;;;;;;;;4979915;28;20187;-86
2024/03/13 12:38:01;;;;;;;2.50;1.47;;;;;;;;;;4989371;28;20214;-86
2024/03/13 12:41:10;;;;;;;1.43;1.23;;;;;;;;;;4979300;28;20187;-86
2024/03/13 12:44:15;;;;;;;1.50;1.30;;;;;;;;;;4967381;28;20179;-86
2024/03/13 12:47:20;;;;;;;15.17;9.40;;;;;;;;;;4978501;28;20178;-86
2024/03/13 12:50:24;;;;;;;79.43;34.60;;;;;;;;;;4979740;28;20183;-86
2024/03/13 12:53:31;;;;;;;17.80;7.83;;;;;;;;;;4978816;28;20197;-86
2024/03/13 12:56:42;;;;;;;41.53;28.50;;;;;;;;;;4979054;28;20187;-86
2024/03/13 12:59:51;;;;;;;12.57;9.90;;;;;;;;;;4978745;28;20265;-86
2024/03/13 13:02:59;;;;;;;14.70;12.90;;;;;;;;;;5000421;28;20179;-89
2024/03/13 13:06:16;;;;;;;14.60;13.13;;;;;;;;;;4978013;28;20190;-88
2024/03/13 13:09:22;;;;;;;1.97;1.77;;;;;;;;;;4977433;28;20222;-88
2024/03/13 13:12:27;;;;;;;2.30;2.00;;;;;;;;;;4977971;28;20187;-88
2024/03/13 13:15:31;;;;;;;1.63;1.50;;;;;;;;;;5000465;28;20179;-88
2024/03/13 13:18:42;;;;;;;1.60;1.50;;;;;;;;;;4988603;28;20242;-88
2024/03/13 13:21:46;;;;;;;1.70;1.33;;;;;;;;;;4966694;28;20192;-88
2024/03/13 13:24:50;;;;;;;2.73;1.77;;;;;;;;;;4978592;28;20179;-88
2024/03/13 13:27:57;;;;;;;1.43;1.33;;;;;;;;;;4966845;28;20175;-87
2024/03/13 13:31:01;;;;;;;1.97;1.43;;;;;;;;;;4988833;28;20186;-88
2024/03/13 13:34:06;;;;;;;1.67;1.40;;;;;;;;;;4978556;28;20191;-88
2024/03/13 13:37:09;;;;;;;1.73;1.63;;;;;;;;;;4989190;28;20179;-86
2024/03/13 13:40:16;;;;;;;1.70;1.60;;;;;;;;;;4989330;28;20215;-86
2024/03/13 13:43:23;;;;;;;2.10;1.90;;;;;;;;;;4967357;28;20183;-87
2024/03/13 13:46:34;;;;;;;2.80;1.40;;;;;;;;;;4989607;28;20183;-87
2024/03/13 13:49:42;;;;;;;4.17;1.80;;;;;;;;;;4978722;28;20215;-88
2024/03/13 13:52:47;;;;;;;1.90;1.43;;;;;;;;;;4977466;28;20187;-87
2024/03/13 13:55:51;;;;;;;1.90;1.70;;;;;;;;;;4988699;28;20183;-89
2024/03/13 13:58:55;;;;;;;1.80;1.47;;;;;;;;;;4965939;28;20239;-86
2024/03/13 14:01:59;;;;;;;2.13;1.47;;;;;;;;;;4977324;28;20187;-87
2024/03/13 14:05:09;;;;;;;1.80;1.50;;;;;;;;;;4989083;28;20178;-87
2024/03/13 14:08:14;;;;;;;2.00;1.80;;;;;;;;;;4966522;28;20215;-87
2024/03/13 14:11:19;;;;;;;3.67;1.90;;;;;;;;;;4977052;28;20179;-87
2024/03/13 14:14:22;;;;;;;4.07;1.73;;;;;;;;;;4999503;28;20187;-87
2024/03/13 14:17:34;;;;;;;16.20;9.73;;;;;;;;;;4987598;28;20529;-87
2024/03/13 14:20:38;;;;;;;10.63;5.63;;;;;;;;;;4999206;28;20184;-87
2024/03/13 14:23:42;;;;;;;19.43;7.80;;;;;;;;;;4965688;28;20187;-87
2024/03/13 14:26:46;;;;;;;32.33;12.63;;;;;;;;;;4977212;28;20182;-87
2024/03/13 14:29:50;;;;;;;33.80;14.37;;;;;;;;;;4976280;28;20230;-87
2024/03/13 14:32:54;;;;;;;10.03;6.90;;;;;;;;;;4954790;28;20190;-87
2024/03/13 14:35:59;;;;;;;5.10;4.60;;;;;;;;;;4976450;28;20548;-87
2024/03/13 14:39:03;;;;;;;3.00;2.60;;;;;;;;;;4987621;28;20230;-87
2024/03/13 14:42:08;;;;;;;4.13;2.90;;;;;;;;;;4976426;28;20179;-87
2024/03/13 14:45:13;;;;;;;2.80;2.50;;;;;;;;;;4998244;28;20632;-87
2024/03/13 14:48:17;;;;;;;3.30;2.93;;;;;;;;;;4999043;28;20215;-88
2024/03/13 14:51:21;;;;;;;2.80;2.60;;;;;;;;;;4987835;28;20186;-88
2024/03/13 14:54:26;;;;;;;2.80;2.60;;;;;;;;;;4998713;28;20187;-89
2024/03/13 14:57:30;;;;;;;2.90;2.60;;;;;;;;;;4976562;28;20179;-88
2024/03/13 15:00:35;;;;;;;2.63;2.43;;;;;;;;;;4977287;28;20183;-88
2024/03/13 15:03:43;;;;;;;3.17;2.87;;;;;;;;;;4976513;28;20179;-88
2024/03/13 15:06:48;;;;;;;3.13;2.80;;;;;;;;;;4976429;28;20186;-88
2024/03/13 15:09:52;;;;;;;4.10;3.80;;;;;;;;;;4975630;28;20210;-88
2024/03/13 15:12:57;;;;;;;3.50;3.20;;;;;;;;;;4975668;28;20187;-88
2024/03/13 15:16:01;;;;;;;3.17;2.87;;;;;;;;;;4964833;28;20187;-88
2024/03/13 15:19:06;;;;;;;4.53;3.87;;;;;;;;;;4986746;28;20238;-88
2024/03/13 15:22:11;;;;;;;4.00;3.53;;;;;;;;;;4999748;28;20183;-89
2024/03/13 15:25:15;;;;;;;3.10;2.87;;;;;;;;;;4976072;28;20187;-88
2024/03/13 15:28:19;;;;;;;4.33;3.57;;;;;;;;;;4975799;28;20219;-88
2024/03/13 15:31:25;;;;;;;3.30;3.00;;;;;;;;;;4975785;28;20194;-88
2024/03/13 15:34:30;;;;;;;3.90;3.60;;;;;;;;;;4977073;28;20183;-88
2024/03/13 15:37:35;;;;;;;4.27;3.07;;;;;;;;;;4975349;28;20182;-88
2024/03/13 15:40:39;;;;;;;4.57;3.17;;;;;;;;;;4975192;28;20171;-88
2024/03/13 15:43:43;;;;;;;3.60;3.30;;;;;;;;;;4975892;28;20183;-88
2024/03/13 15:46:47;;;;;;;4.50;3.30;;;;;;;;;;4987082;28;20186;-88
2024/03/13 15:49:51;;;;;;;3.93;3.20;;;;;;;;;;4986522;28;20214;-88
2024/03/13 15:52:55;;;;;;;4.00;3.30;;;;;;;;;;4975685;28;20182;-88
2024/03/13 15:55:59;;;;;;;5.17;3.73;;;;;;;;;;4975242;28;20182;-88
2024/03/13 15:59:03;;;;;;;3.30;2.90;;;;;;;;;;4974866;28;20230;-88
2024/03/13 16:02:08;;;;;;;3.90;3.60;;;;;;;;;;4975615;28;20179;-88
2024/03/13 16:05:12;;;;;;;5.57;3.80;;;;;;;;;;4986734;28;20632;-88
2024/03/13 16:08:43;;;;;;;4.73;3.20;;;;;;;;;;4986294;28;20219;-88
2024/03/13 16:11:48;;;;;;;4.30;3.90;;;;;;;;;;4975344;28;20640;-88
2024/03/13 16:14:52;;;;;;;5.20;4.70;;;;;;;;;;4975793;28;20187;-88
2024/03/13 16:17:57;;;;;;;4.60;3.33;;;;;;;;;;4996992;28;20199;-88
2024/03/13 16:21:02;;;;;;;4.13;3.67;;;;;;;;;;4977853;28;20187;-87
2024/03/13 16:24:06;;;;;;;3.43;3.13;;;;;;;;;;4956794;28;20187;-86
2024/03/13 16:27:10;;;;;;;3.50;3.20;;;;;;;;;;4989678;28;20187;-86
2024/03/13 16:30:18;;;;;;;6.87;3.63;;;;;;;;;;4978646;28;20207;-86
2024/03/13 16:33:24;;;;;;;3.90;3.60;;;;;;;;;;5000701;28;20183;-87
2024/03/13 16:36:33;;;;;;;4.00;3.43;;;;;;;;;;4978033;28;20183;-84
2024/03/13 16:39:37;;;;;;;4.00;3.70;;;;;;;;;;4987428;28;20227;-85
2024/03/13 16:42:41;;;;;;;3.90;3.60;;;;;;;;;;4979969;28;20182;-86
2024/03/13 16:45:47;;;;;;;3.63;3.33;;;;;;;;;;4980223;28;20183;-85
2024/03/13 16:48:51;;;;;;;4.60;4.20;;;;;;;;;;4990654;28;20214;-86
2024/03/13 16:51:55;;;;;;;4.30;3.93;;;;;;;;;;5001816;28;20187;-85
2024/03/13 16:54:59;;;;;;;4.20;3.80;;;;;;;;;;4979609;28;20178;-85
2024/03/13 16:58:04;;;;;;;5.33;4.20;;;;;;;;;;4979155;28;20183;-85
2024/03/13 17:01:08;;;;;;;4.33;3.90;;;;;;;;;;4980650;28;20183;-85
2024/03/13 17:04:13;;;;;;;3.73;3.43;;;;;;;;;;4980319;28;20629;-85
2024/03/13 17:07:17;;;;;;;4.07;3.77;;;;;;;;;;4979309;28;20228;-86
2024/03/13 17:10:22;;;;;;;3.60;3.30;;;;;;;;;;5001666;28;20621;-86
2024/03/13 17:13:30;;;;;;;4.03;3.63;;;;;;;;;;4979519;28;20187;-85
2024/03/13 17:16:34;;;;;;;4.00;3.63;;;;;;;;;;4990414;28;20637;-85
2024/03/13 17:19:38;;;;;;;3.67;3.37;;;;;;;;;;4979854;28;20234;-86
2024/03/13 17:22:45;;;;;;;4.43;3.20;;;;;;;;;;4979198;28;20183;-85
2024/03/13 17:25:49;;;;;;;3.00;2.77;;;;;;;;;;4979700;28;20632;-85
2024/03/13 17:28:54;;;;;;;2.90;2.70;;;;;;;;;;5001497;28;20215;-86
2024/03/13 17:31:59;;;;;;;3.10;2.40;;;;;;;;;;4979625;28;20226;-86
2024/03/13 17:35:04;;;;;;;2.90;2.37;;;;;;;;;;4990524;28;20179;-84
2024/03/13 17:38:09;;;;;;;3.60;2.70;;;;;;;;;;4973784;28;20191;-86
2024/03/13 17:41:14;;;;;;;5.17;2.40;;;;;;;;;;4984530;28;20175;-86
2024/03/13 17:44:20;;;;;;;3.33;2.60;;;;;;;;;;4986290;28;20198;-86
2024/03/13 17:47:24;;;;;;;2.40;2.20;;;;;;;;;;4984804;28;20179;-86
2024/03/13 17:50:28;;;;;;;3.50;2.77;;;;;;;;;;4985342;28;20179;-86
2024/03/13 17:53:34;;;;;;;2.77;2.57;;;;;;;;;;4983121;28;20183;-86
2024/03/13 17:56:38;;;;;;;3.37;2.87;;;;;;;;;;4984127;28;20183;-86
2024/03/13 17:59:43;;;;;;;3.00;2.80;;;;;;;;;;4971927;28;20226;-86
2024/03/13 18:02:48;;;;;;;5.00;2.80;;;;;;;;;;4993272;28;20191;-86
2024/03/13 18:05:53;;;;;;;3.33;3.00;;;;;;;;;;4983659;28;20548;-86
2024/03/13 18:08:57;;;;;;;4.63;2.80;;;;;;;;;;4971450;28;20230;-86
2024/03/13 18:12:02;;;;;;;3.00;2.70;;;;;;;;;;5005524;28;20182;-86
2024/03/13 18:15:07;;;;;;;5.10;3.03;;;;;;;;;;4970691;28;20187;-86
2024/03/13 18:18:12;;;;;;;3.13;2.70;;;;;;;;;;4970405;28;20230;-86
2024/03/13 18:21:16;;;;;;;3.27;2.90;;;;;;;;;;5003660;28;20179;-86
2024/03/13 18:24:20;;;;;;;3.03;2.70;;;;;;;;;;4970771;28;20182;-86
2024/03/13 18:27:24;;;;;;;3.37;3.07;;;;;;;;;;4993748;28;20179;-87
2024/03/13 18:30:29;;;;;;;3.33;3.03;;;;;;;;;;5004440;28;20191;-86
2024/03/13 18:33:33;;;;;;;3.60;3.30;;;;;;;;;;4970739;28;20187;-87
2024/03/13 18:36:38;;;;;;;3.80;3.43;;;;;;;;;;4993376;28;20187;-86
2024/03/13 18:39:42;;;;;;;3.13;2.80;;;;;;;;;;4983846;28;20235;-85